Wilseyville, California
Current Conditions -  °F | °C
As of 11:15 PM on Thursday 18 Dec 2014 (Local Time) from KO22 Reporting Station
Broken Clouds Broken Clouds  
Wind Chill:   Ceiling: 11000
Heat Index:   Visibility: 10mi
Dew Point:   Wind: 0mph
Humidity: 100%   Direction: NA
Pressure: 30.19"   Gusts: NA
Location:  38.38°N, 120.52°W
Report Text: KO22 190715Z AUTO 00000KT 10SM BKN110 04/04 A3019 RMK AO1
Loading
Personal Weather Stations






























Interactive Weather Map New forecast layout! Learn more

10-Day Weather Forecast

Advertisements
Track Severe Weather on mobile